sensor_id;sensor_type;location;lat;lon;timestamp;pressure;altitude;pressure_sealevel;temperature
27986;BMP280;15453;53.692;10.168;2023-04-24T00:00:00;99719.84;;;17.75
27986;BMP280;15453;53.692;10.168;2023-04-24T00:02:25;99721.59;;;17.71
27986;BMP280;15453;53.692;10.168;2023-04-24T00:04:51;99721.59;;;17.71
27986;BMP280;15453;53.692;10.168;2023-04-24T00:07:16;99711.50;;;17.67
27986;BMP280;15453;53.692;10.168;2023-04-24T00:09:43;99701.06;;;17.64
27986;BMP280;15453;53.692;10.168;2023-04-24T00:12:08;99690.94;;;17.59
27986;BMP280;15453;53.692;10.168;2023-04-24T00:14:34;99686.03;;;17.56
27986;BMP280;15453;53.692;10.168;2023-04-24T00:17:00;99688.63;;;17.53
27986;BMP280;15453;53.692;10.168;2023-04-24T00:19:25;99689.28;;;17.50
27986;BMP280;15453;53.692;10.168;2023-04-24T00:21:50;99678.88;;;17.47
27986;BMP280;15453;53.692;10.168;2023-04-24T00:24:17;99678.88;;;17.47
27986;BMP280;15453;53.692;10.168;2023-04-24T00:26:44;99657.97;;;17.41
27986;BMP280;15453;53.692;10.168;2023-04-24T00:29:09;99669.34;;;17.39
27986;BMP280;15453;53.692;10.168;2023-04-24T00:31:34;99669.34;;;17.39
27986;BMP280;15453;53.692;10.168;2023-04-24T00:34:00;99658.72;;;17.33
27986;BMP280;15453;53.692;10.168;2023-04-24T00:36:26;99654.34;;;17.32
27986;BMP280;15453;53.692;10.168;2023-04-24T00:38:53;99655.16;;;17.32
27986;BMP280;15453;53.692;10.168;2023-04-24T00:41:18;99662.97;;;17.30
27986;BMP280;15453;53.692;10.168;2023-04-24T00:43:44;99662.97;;;17.30
27986;BMP280;15453;53.692;10.168;2023-04-24T00:46:10;99645.03;;;17.27
27986;BMP280;15453;53.692;10.168;2023-04-24T00:48:37;99645.03;;;17.27
27986;BMP280;15453;53.692;10.168;2023-04-24T00:51:03;99644.56;;;17.26
27986;BMP280;15453;53.692;10.168;2023-04-24T00:53:29;99642.13;;;17.24
27986;BMP280;15453;53.692;10.168;2023-04-24T00:55:55;99644.06;;;17.23
27986;BMP280;15453;53.692;10.168;2023-04-24T00:58:20;99644.06;;;17.23
27986;BMP280;15453;53.692;10.168;2023-04-24T01:00:45;99639.50;;;17.19
27986;BMP280;15453;53.692;10.168;2023-04-24T01:03:11;99646.13;;;17.18
27986;BMP280;15453;53.692;10.168;2023-04-24T01:05:38;99646.13;;;17.18
27986;BMP280;15453;53.692;10.168;2023-04-24T01:08:03;99639.28;;;17.15
27986;BMP280;15453;53.692;10.168;2023-04-24T01:10:29;99642.38;;;17.14
27986;BMP280;15453;53.692;10.168;2023-04-24T01:12:56;99639.13;;;17.12
27986;BMP280;15453;53.692;10.168;2023-04-24T01:15:21;99639.13;;;17.12
27986;BMP280;15453;53.692;10.168;2023-04-24T01:17:46;99638.63;;;17.10
27986;BMP280;15453;53.692;10.168;2023-04-24T01:20:12;99649.19;;;17.08
27986;BMP280;15453;53.692;10.168;2023-04-24T01:22:38;99643.66;;;17.08
27986;BMP280;15453;53.692;10.168;2023-04-24T01:25:03;99643.66;;;17.08
27986;BMP280;15453;53.692;10.168;2023-04-24T01:27:30;99638.75;;;17.05
27986;BMP280;15453;53.692;10.168;2023-04-24T01:29:55;99634.53;;;17.07
27986;BMP280;15453;53.692;10.168;2023-04-24T01:32:21;99630.47;;;17.05
27986;BMP280;15453;53.692;10.168;2023-04-24T01:34:46;99630.47;;;17.05
27986;BMP280;15453;53.692;10.168;2023-04-24T01:37:12;99629.47;;;17.01
27986;BMP280;15453;53.692;10.168;2023-04-24T01:39:37;99623.63;;;17.02
27986;BMP280;15453;53.692;10.168;2023-04-24T01:42:02;99623.94;;;17.01
27986;BMP280;15453;53.692;10.168;2023-04-24T01:44:27;99627.00;;;16.99
27986;BMP280;15453;53.692;10.168;2023-04-24T01:46:54;99629.78;;;16.99
27986;BMP280;15453;53.692;10.168;2023-04-24T01:49:20;99621.81;;;16.98
27986;BMP280;15453;53.692;10.168;2023-04-24T01:51:45;99621.81;;;16.98
27986;BMP280;15453;53.692;10.168;2023-04-24T01:54:11;99622.75;;;16.93
27986;BMP280;15453;53.692;10.168;2023-04-24T01:56:40;99617.22;;;16.93
27986;BMP280;15453;53.692;10.168;2023-04-24T01:59:07;99617.22;;;16.93
27986;BMP280;15453;53.692;10.168;2023-04-24T02:01:36;99604.34;;;16.89
27986;BMP280;15453;53.692;10.168;2023-04-24T02:04:01;99606.31;;;16.88
27986;BMP280;15453;53.692;10.168;2023-04-24T02:06:27;99618.69;;;16.91
27986;BMP280;15453;53.692;10.168;2023-04-24T02:08:52;99609.06;;;16.88
27986;BMP280;15453;53.692;10.168;2023-04-24T02:11:17;99609.88;;;16.89
27986;BMP280;15453;53.692;10.168;2023-04-24T02:13:43;99605.50;;;16.88
27986;BMP280;15453;53.692;10.168;2023-04-24T02:16:09;99604.50;;;16.84
27986;BMP280;15453;53.692;10.168;2023-04-24T02:18:34;99606.78;;;16.82
27986;BMP280;15453;53.692;10.168;2023-04-24T02:20:59;99599.94;;;16.79
27986;BMP280;15453;53.692;10.168;2023-04-24T02:23:24;99599.94;;;16.79
27986;BMP280;15453;53.692;10.168;2023-04-24T02:25:50;99603.63;;;16.75
27986;BMP280;15453;53.692;10.168;2023-04-24T02:28:15;99609.78;;;16.72
27986;BMP280;15453;53.692;10.168;2023-04-24T02:30:41;99611.25;;;16.69
27986;BMP280;15453;53.692;10.168;2023-04-24T02:33:06;99609.94;;;16.67
27986;BMP280;15453;53.692;10.168;2023-04-24T02:35:32;99614.13;;;16.64
27986;BMP280;15453;53.692;10.168;2023-04-24T02:37:57;99620.81;;;16.63
27986;BMP280;15453;53.692;10.168;2023-04-24T02:40:22;99620.81;;;16.63
27986;BMP280;15453;53.692;10.168;2023-04-24T02:42:48;99616.22;;;16.59
27986;BMP280;15453;53.692;10.168;2023-04-24T02:45:13;99615.72;;;16.57
27986;BMP280;15453;53.692;10.168;2023-04-24T02:47:38;99611.31;;;16.56
27986;BMP280;15453;53.692;10.168;2023-04-24T02:50:04;99610.50;;;16.55
27986;BMP280;15453;53.692;10.168;2023-04-24T02:52:29;99603.66;;;16.53
27986;BMP280;15453;53.692;10.168;2023-04-24T02:54:55;99603.16;;;16.51
27986;BMP280;15453;53.692;10.168;2023-04-24T02:57:20;99603.16;;;16.51
27986;BMP280;15453;53.692;10.168;2023-04-24T02:59:45;99601.34;;;16.46
27986;BMP280;15453;53.692;10.168;2023-04-24T03:02:11;99605.22;;;16.45
27986;BMP280;15453;53.692;10.168;2023-04-24T03:04:36;99598.38;;;16.43
27986;BMP280;15453;53.692;10.168;2023-04-24T03:07:01;99597.91;;;16.41
27986;BMP280;15453;53.692;10.168;2023-04-24T03:09:26;99591.81;;;16.39
27986;BMP280;15453;53.692;10.168;2023-04-24T03:11:52;99596.34;;;16.35
27986;BMP280;15453;53.692;10.168;2023-04-24T03:14:17;99594.72;;;16.34
27986;BMP280;15453;53.692;10.168;2023-04-24T03:16:42;99593.41;;;16.31
27986;BMP280;15453;53.692;10.168;2023-04-24T03:19:07;99590.16;;;16.29
27986;BMP280;15453;53.692;10.168;2023-04-24T03:21:33;99590.16;;;16.29
27986;BMP280;15453;53.692;10.168;2023-04-24T03:23:58;99588.31;;;16.25
27986;BMP280;15453;53.692;10.168;2023-04-24T03:26:24;99598.06;;;16.22
27986;BMP280;15453;53.692;10.168;2023-04-24T03:28:49;99598.06;;;16.22
27986;BMP280;15453;53.692;10.168;2023-04-24T03:31:15;99582.41;;;16.18
27986;BMP280;15453;53.692;10.168;2023-04-24T03:33:41;99592.97;;;16.16
27986;BMP280;15453;53.692;10.168;2023-04-24T03:36:07;99592.97;;;16.16
27986;BMP280;15453;53.692;10.168;2023-04-24T03:38:32;99594.22;;;16.10
27986;BMP280;15453;53.692;10.168;2023-04-24T03:40:57;99598.09;;;16.09
27986;BMP280;15453;53.692;10.168;2023-04-24T03:43:22;99597.94;;;16.05
27986;BMP280;15453;53.692;10.168;2023-04-24T03:45:48;99593.03;;;16.02
27986;BMP280;15453;53.692;10.168;2023-04-24T03:48:13;99587.31;;;15.99
27986;BMP280;15453;53.692;10.168;2023-04-24T03:50:38;99586.31;;;15.95
27986;BMP280;15453;53.692;10.168;2023-04-24T03:53:03;99584.16;;;15.92
27986;BMP280;15453;53.692;10.168;2023-04-24T03:55:29;99582.84;;;15.89
27986;BMP280;15453;53.692;10.168;2023-04-24T03:57:54;99582.84;;;15.89
27986;BMP280;15453;53.692;10.168;2023-04-24T04:00:20;99586.22;;;15.86
27986;BMP280;15453;53.692;10.168;2023-04-24T04:02:46;99599.53;;;15.84
27986;BMP280;15453;53.692;10.168;2023-04-24T04:05:11;99596.56;;;15.81
27986;BMP280;15453;53.692;10.168;2023-04-24T04:07:36;99596.38;;;15.77
27986;BMP280;15453;53.692;10.168;2023-04-24T04:10:02;99595.88;;;15.75
27986;BMP280;15453;53.692;10.168;2023-04-24T04:12:27;99595.88;;;15.75
27986;BMP280;15453;53.692;10.168;2023-04-24T04:14:52;99599.56;;;15.71
27986;BMP280;15453;53.692;10.168;2023-04-24T04:17:18;99594.88;;;15.71
27986;BMP280;15453;53.692;10.168;2023-04-24T04:19:43;99594.88;;;15.71
27986;BMP280;15453;53.692;10.168;2023-04-24T04:22:08;99591.09;;;15.67
27986;BMP280;15453;53.692;10.168;2023-04-24T04:24:34;99587.19;;;15.68
27986;BMP280;15453;53.692;10.168;2023-04-24T04:27:03;99587.19;;;15.68
27986;BMP280;15453;53.692;10.168;2023-04-24T04:29:29;99588.13;;;15.64
27986;BMP280;15453;53.692;10.168;2023-04-24T04:31:56;99601.91;;;15.64
27986;BMP280;15453;53.692;10.168;2023-04-24T04:34:22;99597.03;;;15.61
27986;BMP280;15453;53.692;10.168;2023-04-24T04:36:48;99590.38;;;15.62
27986;BMP280;15453;53.692;10.168;2023-04-24T04:39:13;99590.38;;;15.62
27986;BMP280;15453;53.692;10.168;2023-04-24T04:41:40;99598.78;;;15.57
27986;BMP280;15453;53.692;10.168;2023-04-24T04:44:05;99597.94;;;15.56
27986;BMP280;15453;53.692;10.168;2023-04-24T04:46:31;99612.28;;;15.58
27986;BMP280;15453;53.692;10.168;2023-04-24T04:49:02;99612.28;;;15.58
27986;BMP280;15453;53.692;10.168;2023-04-24T04:51:28;99611.25;;;15.54
27986;BMP280;15453;53.692;10.168;2023-04-24T04:53:53;99611.25;;;15.54
27986;BMP280;15453;53.692;10.168;2023-04-24T04:56:18;99610.44;;;15.54
27986;BMP280;15453;53.692;10.168;2023-04-24T04:58:43;99610.44;;;15.54
27986;BMP280;15453;53.692;10.168;2023-04-24T05:01:09;99608.50;;;15.54
27986;BMP280;15453;53.692;10.168;2023-04-24T05:03:34;99614.81;;;15.55
27986;BMP280;15453;53.692;10.168;2023-04-24T05:06:01;99614.81;;;15.55
27986;BMP280;15453;53.692;10.168;2023-04-24T05:08:26;99607.38;;;15.55
27986;BMP280;15453;53.692;10.168;2023-04-24T05:10:51;99606.22;;;15.56
27986;BMP280;15453;53.692;10.168;2023-04-24T05:13:16;99610.63;;;15.57
27986;BMP280;15453;53.692;10.168;2023-04-24T05:15:42;99608.69;;;15.58
27986;BMP280;15453;53.692;10.168;2023-04-24T05:18:07;99607.25;;;15.60
27986;BMP280;15453;53.692;10.168;2023-04-24T05:20:32;99607.78;;;15.62
27986;BMP280;15453;53.692;10.168;2023-04-24T05:22:57;99590.88;;;15.64
27986;BMP280;15453;53.692;10.168;2023-04-24T05:25:23;99590.88;;;15.64
27986;BMP280;15453;53.692;10.168;2023-04-24T05:27:48;99608.16;;;15.69
27986;BMP280;15453;53.692;10.168;2023-04-24T05:30:13;99608.16;;;15.69
27986;BMP280;15453;53.692;10.168;2023-04-24T05:32:39;99598.63;;;15.75
27986;BMP280;15453;53.692;10.168;2023-04-24T05:35:04;99598.63;;;15.75
27986;BMP280;15453;53.692;10.168;2023-04-24T05:37:30;99598.50;;;15.80
27986;BMP280;15453;53.692;10.168;2023-04-24T05:39:55;99593.19;;;15.84
27986;BMP280;15453;53.692;10.168;2023-04-24T05:42:20;99602.47;;;15.88
27986;BMP280;15453;53.692;10.168;2023-04-24T05:44:45;99597.13;;;15.91
27986;BMP280;15453;53.692;10.168;2023-04-24T05:47:11;99597.13;;;15.91
27986;BMP280;15453;53.692;10.168;2023-04-24T05:49:36;99607.78;;;15.98
27986;BMP280;15453;53.692;10.168;2023-04-24T05:52:01;99601.31;;;16.02
27986;BMP280;15453;53.692;10.168;2023-04-24T05:54:29;99602.31;;;16.06
27986;BMP280;15453;53.692;10.168;2023-04-24T05:56:54;99600.88;;;16.09
27986;BMP280;15453;53.692;10.168;2023-04-24T05:59:20;99592.44;;;16.14
27986;BMP280;15453;53.692;10.168;2023-04-24T06:01:46;99592.44;;;16.14
27986;BMP280;15453;53.692;10.168;2023-04-24T06:04:12;99606.25;;;16.14
27986;BMP280;15453;53.692;10.168;2023-04-24T06:06:38;99609.09;;;16.22
27986;BMP280;15453;53.692;10.168;2023-04-24T06:09:04;99601.00;;;16.26
27986;BMP280;15453;53.692;10.168;2023-04-24T06:11:29;99601.00;;;16.26
27986;BMP280;15453;53.692;10.168;2023-04-24T06:13:55;99600.88;;;16.31
27986;BMP280;15453;53.692;10.168;2023-04-24T06:16:20;99604.47;;;16.31
27986;BMP280;15453;53.692;10.168;2023-04-24T06:18:45;99601.38;;;16.33
27986;BMP280;15453;53.692;10.168;2023-04-24T06:21:12;99601.38;;;16.33
27986;BMP280;15453;53.692;10.168;2023-04-24T06:23:37;99610.88;;;16.40
27986;BMP280;15453;53.692;10.168;2023-04-24T06:26:03;99610.88;;;16.40
27986;BMP280;15453;53.692;10.168;2023-04-24T06:28:28;99599.53;;;16.42
27986;BMP280;15453;53.692;10.168;2023-04-24T06:30:53;99613.28;;;16.55
27986;BMP280;15453;53.692;10.168;2023-04-24T06:33:18;99613.28;;;16.55
27986;BMP280;15453;53.692;10.168;2023-04-24T06:35:44;99610.38;;;16.60
27986;BMP280;15453;53.692;10.168;2023-04-24T06:38:09;99617.72;;;16.65
27986;BMP280;15453;53.692;10.168;2023-04-24T06:40:34;99617.72;;;16.65
27986;BMP280;15453;53.692;10.168;2023-04-24T06:43:00;99614.84;;;16.70
27986;BMP280;15453;53.692;10.168;2023-04-24T06:45:27;99608.34;;;16.74
27986;BMP280;15453;53.692;10.168;2023-04-24T06:47:52;99608.34;;;16.74
27986;BMP280;15453;53.692;10.168;2023-04-24T06:50:18;99608.03;;;16.76
27986;BMP280;15453;53.692;10.168;2023-04-24T06:52:43;99608.22;;;16.79
27986;BMP280;15453;53.692;10.168;2023-04-24T06:55:09;99598.47;;;16.82
27986;BMP280;15453;53.692;10.168;2023-04-24T06:57:36;99603.88;;;16.87
27986;BMP280;15453;53.692;10.168;2023-04-24T07:00:01;99607.78;;;16.94
27986;BMP280;15453;53.692;10.168;2023-04-24T07:02:28;99613.19;;;16.99
27986;BMP280;15453;53.692;10.168;2023-04-24T07:04:53;99613.19;;;16.99
27986;BMP280;15453;53.692;10.168;2023-04-24T07:07:19;99596.78;;;17.03
27986;BMP280;15453;53.692;10.168;2023-04-24T07:09:44;99602.00;;;17.04
27986;BMP280;15453;53.692;10.168;2023-04-24T07:12:10;99602.00;;;17.04
27986;BMP280;15453;53.692;10.168;2023-04-24T07:14:37;99602.16;;;17.08
27986;BMP280;15453;53.692;10.168;2023-04-24T07:17:03;99592.41;;;17.10
27986;BMP280;15453;53.692;10.168;2023-04-24T07:19:29;99595.69;;;17.13
27986;BMP280;15453;53.692;10.168;2023-04-24T07:21:54;99595.69;;;17.13
27986;BMP280;15453;53.692;10.168;2023-04-24T07:24:20;99594.56;;;17.13
27986;BMP280;15453;53.692;10.168;2023-04-24T07:26:45;99590.63;;;17.14
27986;BMP280;15453;53.692;10.168;2023-04-24T07:29:12;99595.53;;;17.17
27986;BMP280;15453;53.692;10.168;2023-04-24T07:31:38;99596.53;;;17.30
27986;BMP280;15453;53.692;10.168;2023-04-24T07:34:03;99612.19;;;17.35
27986;BMP280;15453;53.692;10.168;2023-04-24T07:36:29;99625.88;;;17.40
27986;BMP280;15453;53.692;10.168;2023-04-24T07:38:54;99620.53;;;17.43
27986;BMP280;15453;53.692;10.168;2023-04-24T07:41:20;99616.81;;;17.48
27986;BMP280;15453;53.692;10.168;2023-04-24T07:43:46;99623.34;;;17.52
27986;BMP280;15453;53.692;10.168;2023-04-24T07:46:11;99623.19;;;17.57
27986;BMP280;15453;53.692;10.168;2023-04-24T07:48:36;99624.81;;;17.58
27986;BMP280;15453;53.692;10.168;2023-04-24T07:51:02;99622.25;;;17.61
27986;BMP280;15453;53.692;10.168;2023-04-24T07:53:27;99619.63;;;17.65
27986;BMP280;15453;53.692;10.168;2023-04-24T07:55:54;99623.22;;;17.65
27986;BMP280;15453;53.692;10.168;2023-04-24T07:58:20;99626.00;;;17.65
27986;BMP280;15453;53.692;10.168;2023-04-24T08:00:45;99621.75;;;17.68
27986;BMP280;15453;53.692;10.168;2023-04-24T08:03:10;99622.25;;;17.70
27986;BMP280;15453;53.692;10.168;2023-04-24T08:05:37;99621.09;;;17.71
27986;BMP280;15453;53.692;10.168;2023-04-24T08:08:02;99631.72;;;17.77
27986;BMP280;15453;53.692;10.168;2023-04-24T08:10:28;99641.19;;;17.85
27986;BMP280;15453;53.692;10.168;2023-04-24T08:12:53;99641.19;;;17.85
27986;BMP280;15453;53.692;10.168;2023-04-24T08:15:19;99624.41;;;17.98
27986;BMP280;15453;53.692;10.168;2023-04-24T08:17:45;99624.41;;;17.98
27986;BMP280;15453;53.692;10.168;2023-04-24T08:20:11;99635.66;;;18.02
27986;BMP280;15453;53.692;10.168;2023-04-24T08:22:42;99641.03;;;18.07
27986;BMP280;15453;53.692;10.168;2023-04-24T08:25:08;99642.03;;;18.11
27986;BMP280;15453;53.692;10.168;2023-04-24T08:27:34;99658.97;;;18.18
27986;BMP280;15453;53.692;10.168;2023-04-24T08:29:59;99652.13;;;18.15
27986;BMP280;15453;53.692;10.168;2023-04-24T08:32:25;99652.13;;;18.15
27986;BMP280;15453;53.692;10.168;2023-04-24T08:34:53;99649.19;;;18.12
27986;BMP280;15453;53.692;10.168;2023-04-24T08:37:21;99656.84;;;18.15
27986;BMP280;15453;53.692;10.168;2023-04-24T08:39:46;99654.59;;;18.17
27986;BMP280;15453;53.692;10.168;2023-04-24T08:42:12;99661.44;;;18.19
27986;BMP280;15453;53.692;10.168;2023-04-24T08:44:38;99664.69;;;18.21
27986;BMP280;15453;53.692;10.168;2023-04-24T08:47:04;99664.69;;;18.21
27986;BMP280;15453;53.692;10.168;2023-04-24T08:49:30;99669.09;;;18.31
27986;BMP280;15453;53.692;10.168;2023-04-24T08:51:56;99669.09;;;18.31
27986;BMP280;15453;53.692;10.168;2023-04-24T08:54:21;99667.47;;;18.38
27986;BMP280;15453;53.692;10.168;2023-04-24T08:56:48;99661.28;;;18.41
27986;BMP280;15453;53.692;10.168;2023-04-24T08:59:14;99661.28;;;18.41
27986;BMP280;15453;53.692;10.168;2023-04-24T09:01:40;99659.97;;;18.47
27986;BMP280;15453;53.692;10.168;2023-04-24T09:04:07;99665.38;;;18.52
27986;BMP280;15453;53.692;10.168;2023-04-24T09:06:32;99658.84;;;18.57
27986;BMP280;15453;53.692;10.168;2023-04-24T09:09:00;99663.41;;;18.61
27986;BMP280;15453;53.692;10.168;2023-04-24T09:11:26;99663.41;;;18.61
27986;BMP280;15453;53.692;10.168;2023-04-24T09:13:53;99675.94;;;18.67
27986;BMP280;15453;53.692;10.168;2023-04-24T09:16:19;99675.94;;;18.67
27986;BMP280;15453;53.692;10.168;2023-04-24T09:18:44;99668.94;;;18.70
27986;BMP280;15453;53.692;10.168;2023-04-24T09:21:09;99677.25;;;18.70
27986;BMP280;15453;53.692;10.168;2023-04-24T09:23:35;99677.25;;;18.70
27986;BMP280;15453;53.692;10.168;2023-04-24T09:26:02;99689.16;;;18.70
27986;BMP280;15453;53.692;10.168;2023-04-24T09:28:32;99683.94;;;18.69
27986;BMP280;15453;53.692;10.168;2023-04-24T09:31:14;99683.94;;;18.69
27986;BMP280;15453;53.692;10.168;2023-04-24T09:36:18;99687.38;;;18.74
27986;BMP280;15453;53.692;10.168;2023-04-24T09:38:44;99687.38;;;18.74
27986;BMP280;15453;53.692;10.168;2023-04-24T09:41:13;99673.81;;;18.73
27986;BMP280;15453;53.692;10.168;2023-04-24T09:43:38;99675.28;;;18.79
27986;BMP280;15453;53.692;10.168;2023-04-24T09:46:06;99675.28;;;18.79
27986;BMP280;15453;53.692;10.168;2023-04-24T09:48:36;99676.59;;;18.81
27986;BMP280;15453;53.692;10.168;2023-04-24T09:51:03;99676.59;;;18.81
27986;BMP280;15453;53.692;10.168;2023-04-24T09:53:30;99673.66;;;18.78
27986;BMP280;15453;53.692;10.168;2023-04-24T09:55:56;99672.84;;;18.77
27986;BMP280;15453;53.692;10.168;2023-04-24T09:58:25;99673.66;;;18.78
27986;BMP280;15453;53.692;10.168;2023-04-24T10:00:53;99686.03;;;18.80
27986;BMP280;15453;53.692;10.168;2023-04-24T10:03:19;99686.03;;;18.80
27986;BMP280;15453;53.692;10.168;2023-04-24T10:05:46;99676.94;;;18.80
27986;BMP280;15453;53.692;10.168;2023-04-24T10:08:12;99676.59;;;18.81
27986;BMP280;15453;53.692;10.168;2023-04-24T10:10:40;99686.69;;;18.86
27986;BMP280;15453;53.692;10.168;2023-04-24T10:13:07;99686.69;;;18.86
27986;BMP280;15453;53.692;10.168;2023-04-24T10:15:34;99691.78;;;18.84
27986;BMP280;15453;53.692;10.168;2023-04-24T10:18:00;99691.78;;;18.84
27986;BMP280;15453;53.692;10.168;2023-04-24T10:20:27;99689.00;;;18.75
27986;BMP280;15453;53.692;10.168;2023-04-24T10:22:54;99697.50;;;18.70
27986;BMP280;15453;53.692;10.168;2023-04-24T10:25:23;99697.50;;;18.70
27986;BMP280;15453;53.692;10.168;2023-04-24T10:27:49;99700.56;;;18.60
27986;BMP280;15453;53.692;10.168;2023-04-24T10:30:15;99700.56;;;18.60
27986;BMP280;15453;53.692;10.168;2023-04-24T10:32:41;99703.03;;;18.53
27986;BMP280;15453;53.692;10.168;2023-04-24T10:35:07;99710.84;;;18.51
27986;BMP280;15453;53.692;10.168;2023-04-24T10:37:39;99710.84;;;18.51
27986;BMP280;15453;53.692;10.168;2023-04-24T10:40:06;99705.47;;;18.46
27986;BMP280;15453;53.692;10.168;2023-04-24T10:42:32;99711.53;;;18.48
27986;BMP280;15453;53.692;10.168;2023-04-24T10:44:58;99709.56;;;18.49
27986;BMP280;15453;53.692;10.168;2023-04-24T10:47:23;99709.56;;;18.49
27986;BMP280;15453;53.692;10.168;2023-04-24T10:49:51;99707.44;;;18.46
27986;BMP280;15453;53.692;10.168;2023-04-24T10:52:16;99708.41;;;18.50
27986;BMP280;15453;53.692;10.168;2023-04-24T10:54:46;99705.31;;;18.51
27986;BMP280;15453;53.692;10.168;2023-04-24T10:59:45;99702.53;;;18.51
27986;BMP280;15453;53.692;10.168;2023-04-24T11:02:10;99709.88;;;18.56
27986;BMP280;15453;53.692;10.168;2023-04-24T11:04:35;99715.78;;;18.63
27986;BMP280;15453;53.692;10.168;2023-04-24T11:07:02;99715.78;;;18.63
27986;BMP280;15453;53.692;10.168;2023-04-24T11:09:30;99719.53;;;18.67
27986;BMP280;15453;53.692;10.168;2023-04-24T11:12:04;99719.53;;;18.67
27986;BMP280;15453;53.692;10.168;2023-04-24T11:17:30;99718.03;;;18.61
27986;BMP280;15453;53.692;10.168;2023-04-24T11:22:36;99719.34;;;18.55
27986;BMP280;15453;53.692;10.168;2023-04-24T11:25:02;99714.78;;;18.50
27986;BMP280;15453;53.692;10.168;2023-04-24T11:27:41;99714.31;;;18.48
27986;BMP280;15453;53.692;10.168;2023-04-24T11:30:07;99714.31;;;18.48
27986;BMP280;15453;53.692;10.168;2023-04-24T11:35:00;99714.78;;;18.59
27986;BMP280;15453;53.692;10.168;2023-04-24T11:37:28;99714.78;;;18.59
27986;BMP280;15453;53.692;10.168;2023-04-24T11:39:55;99705.47;;;18.63
27986;BMP280;15453;53.692;10.168;2023-04-24T11:42:23;99707.25;;;18.85
27986;BMP280;15453;53.692;10.168;2023-04-24T11:44:52;99707.25;;;18.85
27986;BMP280;15453;53.692;10.168;2023-04-24T11:47:18;99703.63;;;19.01
27986;BMP280;15453;53.692;10.168;2023-04-24T11:49:43;99707.19;;;19.10
27986;BMP280;15453;53.692;10.168;2023-04-24T11:52:08;99709.63;;;19.20
27986;BMP280;15453;53.692;10.168;2023-04-24T11:54:33;99709.63;;;19.20
27986;BMP280;15453;53.692;10.168;2023-04-24T11:56:59;99710.59;;;19.33
27986;BMP280;15453;53.692;10.168;2023-04-24T11:59:24;99716.00;;;19.38
27986;BMP280;15453;53.692;10.168;2023-04-24T12:01:50;99716.78;;;19.38
27986;BMP280;15453;53.692;10.168;2023-04-24T12:04:16;99716.78;;;19.38
27986;BMP280;15453;53.692;10.168;2023-04-24T12:07:11;99712.56;;;19.32
27986;BMP280;15453;53.692;10.168;2023-04-24T12:09:59;99702.28;;;19.33
27986;BMP280;15453;53.692;10.168;2023-04-24T12:12:27;99709.44;;;19.42
27986;BMP280;15453;53.692;10.168;2023-04-24T12:14:57;99709.44;;;19.42
27986;BMP280;15453;53.692;10.168;2023-04-24T12:17:30;99709.41;;;19.51
27986;BMP280;15453;53.692;10.168;2023-04-24T12:20:01;99709.41;;;19.51
27986;BMP280;15453;53.692;10.168;2023-04-24T12:22:27;99694.84;;;19.54
27986;BMP280;15453;53.692;10.168;2023-04-24T12:25:03;99694.84;;;19.54
27986;BMP280;15453;53.692;10.168;2023-04-24T12:27:32;99703.34;;;19.49
27986;BMP280;15453;53.692;10.168;2023-04-24T12:29:59;99696.50;;;19.46
27986;BMP280;15453;53.692;10.168;2023-04-24T12:32:24;99704.69;;;19.43
27986;BMP280;15453;53.692;10.168;2023-04-24T12:34:51;99707.66;;;19.38
27986;BMP280;15453;53.692;10.168;2023-04-24T12:37:17;99713.38;;;19.33
27986;BMP280;15453;53.692;10.168;2023-04-24T12:40:21;99716.00;;;19.29
27986;BMP280;15453;53.692;10.168;2023-04-24T12:42:48;99707.34;;;19.31
27986;BMP280;15453;53.692;10.168;2023-04-24T12:45:15;99707.34;;;19.31
27986;BMP280;15453;53.692;10.168;2023-04-24T12:47:42;99713.38;;;19.33
27986;BMP280;15453;53.692;10.168;2023-04-24T12:50:09;99713.38;;;19.33
27986;BMP280;15453;53.692;10.168;2023-04-24T12:52:34;99699.50;;;19.33
27986;BMP280;15453;53.692;10.168;2023-04-24T12:55:00;99713.22;;;19.38
27986;BMP280;15453;53.692;10.168;2023-04-24T12:57:27;99713.22;;;19.38
27986;BMP280;15453;53.692;10.168;2023-04-24T12:59:54;99718.28;;;19.36
27986;BMP280;15453;53.692;10.168;2023-04-24T13:02:20;99719.09;;;19.36
27986;BMP280;15453;53.692;10.168;2023-04-24T13:04:49;99717.63;;;19.39
27986;BMP280;15453;53.692;10.168;2023-04-24T13:07:14;99729.88;;;19.38
27986;BMP280;15453;53.692;10.168;2023-04-24T13:09:41;99729.88;;;19.38
27986;BMP280;15453;53.692;10.168;2023-04-24T13:12:07;99724.66;;;19.36
27986;BMP280;15453;53.692;10.168;2023-04-24T13:14:33;99728.53;;;19.35
27986;BMP280;15453;53.692;10.168;2023-04-24T13:16:58;99731.50;;;19.30
27986;BMP280;15453;53.692;10.168;2023-04-24T13:19:27;99731.50;;;19.30
27986;BMP280;15453;53.692;10.168;2023-04-24T13:21:54;99717.81;;;19.25
27986;BMP280;15453;53.692;10.168;2023-04-24T13:24:20;99737.06;;;19.22
27986;BMP280;15453;53.692;10.168;2023-04-24T13:26:46;99733.66;;;19.16
27986;BMP280;15453;53.692;10.168;2023-04-24T13:29:11;99739.69;;;19.10
27986;BMP280;15453;53.692;10.168;2023-04-24T13:31:36;99733.81;;;19.03
27986;BMP280;15453;53.692;10.168;2023-04-24T13:34:02;99731.56;;;18.96
27986;BMP280;15453;53.692;10.168;2023-04-24T13:36:29;99731.56;;;18.96
27986;BMP280;15453;53.692;10.168;2023-04-24T13:38:55;99735.16;;;18.88
27986;BMP280;15453;53.692;10.168;2023-04-24T13:41:20;99731.75;;;18.74
27986;BMP280;15453;53.692;10.168;2023-04-24T13:43:45;99727.00;;;18.66
27986;BMP280;15453;53.692;10.168;2023-04-24T13:46:10;99737.44;;;18.61
27986;BMP280;15453;53.692;10.168;2023-04-24T13:48:36;99737.44;;;18.61
27986;BMP280;15453;53.692;10.168;2023-04-24T13:51:01;99734.34;;;18.54
27986;BMP280;15453;53.692;10.168;2023-04-24T13:53:26;99731.75;;;18.49
27986;BMP280;15453;53.692;10.168;2023-04-24T13:55:52;99731.75;;;18.49
27986;BMP280;15453;53.692;10.168;2023-04-24T13:58:17;99735.81;;;18.43
27986;BMP280;15453;53.692;10.168;2023-04-24T14:00:42;99735.81;;;18.43
27986;BMP280;15453;53.692;10.168;2023-04-24T14:03:08;99726.84;;;18.37